Archival Weather

Republic

Farmingdale, New York (KFRG)

Report from: Friday, February 2, 2024 3:53 PM EST
Current time: Monday, June 17, 2024 2:47 AM EDT

Current weather – Weather history – Daily summaries
Weather forecast

Temperature5.6°C (42.1°F)
Wind chill2.5°C (36.6°F)
Dew point2.8°C (37.0°F)
Winds 8 kts (4.1 m/s, 9.2 mph) North (360°)
Visibility10 mi. (16.1 km)
Clouds Ceiling: Overcast 6,500 ft. (1,981 m)
Altimeter29.88 in.Hg (1012 mB)
Relative humidity82 %
Density altitude-971 ft. (-296 m)
Sea-level pressure101.2 kPa (1012 mB, 29.88 in.Hg)
Remarks Automated weather observing station without precipitation discriminator
Pressure rising more quickly
Flight conditions Visual Meteorological Conditions
Raw dataKFRG 022053Z 36008KT 10SM OVC065 06/03 A2988 RMK AO1 SLP117 T00560028 53010
An error has occurred. This application may no longer respond until reloaded. Reload 🗙